createdAt,value
2018-06-17T00:01:27.226Z,17.50
2018-06-17T00:04:37.538Z,17.50
2018-06-17T00:07:47.988Z,17.50
2018-06-17T00:10:58.527Z,17.50
2018-06-17T00:14:09.178Z,17.50
2018-06-17T00:17:19.754Z,17.50
2018-06-17T00:20:29.743Z,17.60
2018-06-17T00:23:39.667Z,17.60
2018-06-17T00:26:50.559Z,17.60
2018-06-17T00:30:01.390Z,17.50
2018-06-17T00:33:12.051Z,17.50
2018-06-17T00:36:22.775Z,17.50
2018-06-17T00:39:32.726Z,17.50
2018-06-17T00:42:42.569Z,17.40
2018-06-17T00:45:53.877Z,17.30
2018-06-17T00:49:04.206Z,17.40
2018-06-17T00:52:14.740Z,17.40
2018-06-17T00:55:25.364Z,17.40
2018-06-17T00:58:35.827Z,17.30
2018-06-17T01:01:46.569Z,17.30
2018-06-17T01:04:57.496Z,17.20
2018-06-17T01:08:08.249Z,17.10
2018-06-17T01:11:19.092Z,17.10
2018-06-17T01:14:29.152Z,17.10
2018-06-17T01:17:39.276Z,17.10
2018-06-17T01:20:49.852Z,17.10
2018-06-17T01:24:00.712Z,17.00
2018-06-17T01:27:11.342Z,17.10
2018-06-17T01:30:21.308Z,17.00
2018-06-17T01:33:31.249Z,17.00
2018-06-17T01:36:41.996Z,17.00
2018-06-17T01:39:52.744Z,17.10
2018-06-17T01:43:03.541Z,17.00
2018-06-17T01:46:14.363Z,16.90
2018-06-17T01:49:24.314Z,16.90
2018-06-17T01:55:45.756Z,16.90
2018-06-17T01:58:56.451Z,17.00
2018-06-17T02:02:07.360Z,16.90
2018-06-17T02:06:24.645Z,16.80
2018-06-17T02:09:40.560Z,16.90
2018-06-17T02:12:50.833Z,16.80
2018-06-17T02:16:01.923Z,16.70
2018-06-17T02:19:13.420Z,16.70
2018-06-17T02:22:25.821Z,16.70
2018-06-17T02:25:38.036Z,16.70
2018-06-17T02:28:51.569Z,16.60
2018-06-17T02:32:05.201Z,16.60
2018-06-17T02:35:23.202Z,16.60
2018-06-17T02:38:36.576Z,16.60
2018-06-17T02:41:47.295Z,16.60
2018-06-17T02:45:02.821Z,16.50
2018-06-17T02:48:18.711Z,16.50
2018-06-17T02:51:34.307Z,16.40
2018-06-17T02:54:46.798Z,16.40
2018-06-17T02:57:56.920Z,16.30
2018-06-17T03:01:08.157Z,16.30
2018-06-17T03:04:18.908Z,16.40
2018-06-17T03:07:29.728Z,16.30
2018-06-17T03:10:53.431Z,16.40
2018-06-17T03:14:04.186Z,16.20
2018-06-17T03:17:14.969Z,16.20
2018-06-17T03:20:26.240Z,16.10
2018-06-17T03:23:36.791Z,16.10
2018-06-17T03:26:53.361Z,16.10
2018-06-17T03:30:11.852Z,16.10
2018-06-17T03:33:28.565Z,16.10
2018-06-17T03:36:39.314Z,16.00
2018-06-17T03:39:50.114Z,16.10
2018-06-17T03:43:01.245Z,15.90
2018-06-17T03:46:11.512Z,16.00
2018-06-17T03:49:22.412Z,16.00
2018-06-17T03:52:33.819Z,16.00
2018-06-17T03:55:43.942Z,16.10
2018-06-17T03:58:54.983Z,16.00
2018-06-17T04:02:06.802Z,16.10
2018-06-17T04:05:23.124Z,16.10
2018-06-17T04:08:33.783Z,16.10
2018-06-17T04:11:44.097Z,16.20
2018-06-17T04:14:54.226Z,16.30
2018-06-17T04:18:05.383Z,16.30
2018-06-17T04:21:15.993Z,16.40
2018-06-17T04:27:37.471Z,16.40
2018-06-17T04:30:48.169Z,16.50
2018-06-17T04:33:58.361Z,16.50
2018-06-17T04:37:08.765Z,16.60
2018-06-17T04:40:19.572Z,16.70
2018-06-17T04:43:30.494Z,16.80
2018-06-17T04:46:41.596Z,16.90
2018-06-17T04:49:52.620Z,17.10
2018-06-17T04:53:03.473Z,17.20
2018-06-17T04:56:14.513Z,17.30
2018-06-17T04:59:25.496Z,17.40
2018-06-17T05:02:36.291Z,17.50
2018-06-17T05:05:49.824Z,17.50
2018-06-17T05:09:01.170Z,17.60
2018-06-17T05:12:12.170Z,17.80
2018-06-17T05:15:23.089Z,17.80
2018-06-17T05:18:33.709Z,17.90
2018-06-17T05:21:48.384Z,18.00
2018-06-17T05:24:58.322Z,18.20
2018-06-17T05:28:10.086Z,18.40
2018-06-17T05:31:21.305Z,18.50
2018-06-17T05:34:33.193Z,18.60
2018-06-17T05:37:44.280Z,18.70
2018-06-17T05:40:54.598Z,18.80
2018-06-17T05:44:06.291Z,18.90
2018-06-17T05:47:17.627Z,19.10
2018-06-17T05:50:28.016Z,19.30
2018-06-17T05:53:39.095Z,19.40
2018-06-17T05:56:49.675Z,19.50
2018-06-17T06:00:00.574Z,19.60
2018-06-17T06:03:11.092Z,19.80
2018-06-17T06:06:23.412Z,19.90
2018-06-17T06:09:34.512Z,19.90
2018-06-17T06:12:46.729Z,19.90
2018-06-17T06:16:02.312Z,20.00
2018-06-17T06:19:13.269Z,20.10
2018-06-17T06:22:24.204Z,20.40
2018-06-17T06:25:35.127Z,20.40
2018-06-17T06:28:46.295Z,20.50
2018-06-17T06:31:56.991Z,20.70
2018-06-17T06:35:07.941Z,20.90
2018-06-17T06:38:18.816Z,21.00
2018-06-17T06:41:29.635Z,21.00
2018-06-17T06:44:40.809Z,21.10
2018-06-17T06:47:52.081Z,21.20
2018-06-17T06:51:05.062Z,21.30
2018-06-17T06:54:24.340Z,21.50
2018-06-17T06:57:35.374Z,21.60
2018-06-17T07:00:47.484Z,21.80
2018-06-17T07:04:09.615Z,21.80
2018-06-17T07:09:38.197Z,21.90
2018-06-17T07:12:58.960Z,22.00
2018-06-17T07:16:25.014Z,22.20
2018-06-17T07:19:37.009Z,22.30
2018-06-17T07:22:48.255Z,22.40
2018-06-17T07:26:43.220Z,22.60
2018-06-17T07:29:54.811Z,22.60
2018-06-17T07:33:05.313Z,22.70
2018-06-17T07:36:15.928Z,22.80
2018-06-17T07:44:45.709Z,22.90
2018-06-17T07:47:55.668Z,23.20
2018-06-17T07:51:17.378Z,23.40
2018-06-17T07:54:28.101Z,23.10
2018-06-17T07:57:38.649Z,23.10
2018-06-17T08:00:50.089Z,23.30
2018-06-17T08:04:09.666Z,23.60
2018-06-17T08:07:19.953Z,24.20
2018-06-17T08:10:31.046Z,24.20
2018-06-17T08:13:51.495Z,24.40
2018-06-17T08:17:03.281Z,24.70
2018-06-17T08:20:15.480Z,24.80
2018-06-17T08:23:33.438Z,24.80
2018-06-17T08:26:51.847Z,25.00
2018-06-17T08:30:05.866Z,25.10
2018-06-17T08:33:27.190Z,25.30
2018-06-17T08:36:44.119Z,25.60
2018-06-17T08:39:54.582Z,25.60
2018-06-17T08:43:05.885Z,25.70
2018-06-17T08:46:16.508Z,25.90
2018-06-17T08:49:27.510Z,26.00
2018-06-17T08:52:38.535Z,25.70
2018-06-17T08:55:49.870Z,25.10
2018-06-17T08:59:01.751Z,24.80
2018-06-17T09:02:22.364Z,24.60
2018-06-17T09:05:32.895Z,24.20
2018-06-17T09:08:43.788Z,24.10
2018-06-17T09:11:59.246Z,24.10
2018-06-17T09:15:10.703Z,23.90
2018-06-17T09:18:32.013Z,23.80
2018-06-17T09:25:05.280Z,23.80
2018-06-17T09:28:27.065Z,24.20
2018-06-17T09:31:38.102Z,24.20
2018-06-17T09:34:48.454Z,24.10
2018-06-17T09:38:01.434Z,24.20
2018-06-17T09:41:12.213Z,24.30
2018-06-17T09:44:23.762Z,24.20
2018-06-17T09:47:37.835Z,24.20
2018-06-17T09:50:49.921Z,24.10
2018-06-17T09:54:02.403Z,23.80
2018-06-17T09:57:15.074Z,23.90
2018-06-17T10:00:26.297Z,24.00
2018-06-17T10:03:38.429Z,23.90
2018-06-17T10:06:48.960Z,24.00
2018-06-17T10:11:14.455Z,23.80
2018-06-17T10:14:25.591Z,23.80
2018-06-17T10:17:37.113Z,23.90
2018-06-17T10:20:47.729Z,23.80
2018-06-17T10:23:58.260Z,23.90
2018-06-17T10:27:10.035Z,24.20
2018-06-17T10:30:27.578Z,24.20
2018-06-17T10:33:46.518Z,24.40
2018-06-17T10:36:57.836Z,24.40
2018-06-17T10:40:10.741Z,24.40
2018-06-17T10:43:23.831Z,24.50
2018-06-17T10:46:34.908Z,24.60
2018-06-17T10:49:47.012Z,24.50
2018-06-17T10:52:59.893Z,24.70
2018-06-17T10:56:12.988Z,24.50
2018-06-17T11:02:37.006Z,23.20
2018-06-17T11:05:51.370Z,22.80
2018-06-17T11:09:17.702Z,22.10
2018-06-17T11:12:28.872Z,22.00
2018-06-17T11:15:46.842Z,21.70
2018-06-17T11:19:07.315Z,21.40
2018-06-17T11:22:31.004Z,21.20
2018-06-17T11:25:42.057Z,21.00
2018-06-17T11:28:58.700Z,21.10
2018-06-17T11:32:10.257Z,20.90
2018-06-17T11:35:37.723Z,21.00
2018-06-17T11:38:50.233Z,21.10
2018-06-17T11:45:24.483Z,21.10
2018-06-17T11:48:36.797Z,21.20
2018-06-17T11:51:54.946Z,21.10
2018-06-17T11:55:18.524Z,21.10
2018-06-17T11:58:40.817Z,20.90
2018-06-17T12:01:51.970Z,21.30
2018-06-17T12:05:04.423Z,21.50
2018-06-17T12:08:16.971Z,21.20
2018-06-17T12:11:34.058Z,21.10
2018-06-17T12:14:44.988Z,21.10
2018-06-17T12:17:55.208Z,21.20
2018-06-17T12:21:09.593Z,21.40
2018-06-17T12:27:36.611Z,21.40
2018-06-17T12:30:48.485Z,21.50
2018-06-17T12:34:05.524Z,21.60
2018-06-17T12:37:17.132Z,21.80
2018-06-17T12:40:29.494Z,22.10
2018-06-17T12:43:40.593Z,22.20
2018-06-17T12:46:54.728Z,22.50
2018-06-17T12:50:05.959Z,22.70
2018-06-17T12:53:16.857Z,22.70
2018-06-17T12:56:28.655Z,22.70
2018-06-17T12:59:51.686Z,22.60
2018-06-17T13:03:03.382Z,22.60
2018-06-17T13:06:14.783Z,22.70
2018-06-17T13:09:25.148Z,22.90
2018-06-17T13:12:35.815Z,22.90
2018-06-17T13:15:47.169Z,22.60
2018-06-17T13:18:58.194Z,22.60
2018-06-17T13:22:09.538Z,22.50
2018-06-17T13:25:22.500Z,22.60
2018-06-17T13:28:41.932Z,22.70
2018-06-17T13:31:58.911Z,23.00
2018-06-17T13:35:10.702Z,23.20
2018-06-17T13:38:22.405Z,22.90
2018-06-17T13:41:37.416Z,22.90
2018-06-17T13:44:48.819Z,22.80
2018-06-17T13:47:59.582Z,22.80
2018-06-17T13:51:10.266Z,22.80
2018-06-17T13:54:21.790Z,22.80
2018-06-17T13:57:32.879Z,22.50
2018-06-17T14:00:51.400Z,22.40
2018-06-17T14:04:02.026Z,22.30
2018-06-17T14:07:12.928Z,22.20
2018-06-17T14:10:24.009Z,22.00
2018-06-17T14:13:36.700Z,22.00
2018-06-17T14:16:47.421Z,21.30
2018-06-17T14:19:58.216Z,21.10
2018-06-17T14:23:09.001Z,20.80
2018-06-17T14:26:18.875Z,20.80
2018-06-17T14:29:29.757Z,20.70
2018-06-17T14:32:40.632Z,20.60
2018-06-17T14:35:50.673Z,20.90
2018-06-17T14:39:00.729Z,21.00
2018-06-17T14:42:16.258Z,21.00
2018-06-17T14:45:32.476Z,21.00
2018-06-17T14:48:47.897Z,20.90
2018-06-17T14:52:03.582Z,20.70
2018-06-17T14:55:14.720Z,20.90
2018-06-17T14:58:25.081Z,20.90
2018-06-17T15:01:36.398Z,21.10
2018-06-17T15:04:46.422Z,21.20
2018-06-17T15:07:57.123Z,21.20
2018-06-17T15:11:07.680Z,21.30
2018-06-17T15:14:18.408Z,21.40
2018-06-17T15:17:29.266Z,21.00
2018-06-17T15:20:40.148Z,21.00
2018-06-17T15:23:52.195Z,21.00
2018-06-17T15:27:02.216Z,21.10
2018-06-17T15:30:12.027Z,21.00
2018-06-17T15:33:27.373Z,20.90
2018-06-17T15:36:43.252Z,20.60
2018-06-17T15:39:55.662Z,20.50
2018-06-17T15:43:06.990Z,20.70
2018-06-17T15:46:17.521Z,20.80
2018-06-17T15:49:28.346Z,20.80
2018-06-17T15:52:38.449Z,21.00
2018-06-17T15:55:48.644Z,20.90
2018-06-17T15:58:59.544Z,20.80
2018-06-17T16:02:09.840Z,21.00
2018-06-17T16:05:19.660Z,21.10
2018-06-17T16:08:29.485Z,21.10
2018-06-17T16:11:45.247Z,21.10
2018-06-17T16:15:00.463Z,21.00
2018-06-17T16:19:19.558Z,20.80
2018-06-17T16:22:29.808Z,20.70
2018-06-17T16:25:41.218Z,20.70
2018-06-17T16:28:51.546Z,20.70
2018-06-17T16:32:02.155Z,20.80
2018-06-17T16:35:12.925Z,20.80
2018-06-17T16:38:23.943Z,20.80
2018-06-17T16:41:34.448Z,20.90
2018-06-17T16:44:45.265Z,20.90
2018-06-17T16:47:56.032Z,20.90
2018-06-17T16:51:12.331Z,20.80
2018-06-17T16:54:27.513Z,20.70
2018-06-17T16:57:43.354Z,20.40
2018-06-17T17:00:53.710Z,20.50
2018-06-17T17:04:05.108Z,20.50
2018-06-17T17:07:15.204Z,20.50
2018-06-17T17:10:25.944Z,20.50
2018-06-17T17:13:36.525Z,20.30
2018-06-17T17:16:46.742Z,20.30
2018-06-17T17:19:57.637Z,20.20
2018-06-17T17:23:08.476Z,20.40
2018-06-17T17:26:19.688Z,20.40
2018-06-17T17:29:30.160Z,20.30
2018-06-17T17:33:49.044Z,20.30
2018-06-17T17:37:04.392Z,20.40
2018-06-17T17:40:19.788Z,20.30
2018-06-17T17:43:31.107Z,20.30
2018-06-17T17:46:46.714Z,20.30
2018-06-17T17:49:57.467Z,20.20
2018-06-17T17:53:08.274Z,20.10
2018-06-17T17:56:18.523Z,20.20
2018-06-17T17:59:29.153Z,20.10
2018-06-17T18:02:39.424Z,20.10
2018-06-17T18:05:49.637Z,20.10
2018-06-17T18:08:59.544Z,20.10
2018-06-17T18:12:11.489Z,20.00
2018-06-17T18:15:22.452Z,20.00
2018-06-17T18:18:36.473Z,19.90
2018-06-17T18:21:47.196Z,19.80
2018-06-17T18:25:04.601Z,19.80
2018-06-17T18:28:20.686Z,19.70
2018-06-17T18:31:35.207Z,19.60
2018-06-17T18:34:51.110Z,19.60
2018-06-17T18:38:01.176Z,19.50
2018-06-17T18:41:13.734Z,19.60
2018-06-17T18:44:24.090Z,19.50
2018-06-17T18:47:34.847Z,19.60
2018-06-17T18:53:56.342Z,19.90
2018-06-17T18:57:06.344Z,19.60
2018-06-17T19:00:17.076Z,19.50
2018-06-17T19:03:27.802Z,19.50
2018-06-17T19:06:38.648Z,19.60
2018-06-17T19:09:54.315Z,19.60
2018-06-17T19:13:10.101Z,19.60
2018-06-17T19:16:25.844Z,19.80
2018-06-17T19:19:35.955Z,19.70
2018-06-17T19:22:46.166Z,19.70
2018-06-17T19:25:57.121Z,19.80
2018-06-17T19:29:08.111Z,19.60
2018-06-17T19:32:18.874Z,19.70
2018-06-17T19:35:29.805Z,19.70
2018-06-17T19:38:40.343Z,19.60
2018-06-17T19:41:51.299Z,19.60
2018-06-17T19:45:03.050Z,19.50
2018-06-17T19:48:14.085Z,19.40
2018-06-17T19:51:30.066Z,19.40
2018-06-17T19:54:52.440Z,19.10
2018-06-17T19:58:07.682Z,19.20
2018-06-17T20:01:18.121Z,19.20
2018-06-17T20:04:28.789Z,19.20
2018-06-17T20:07:40.545Z,19.30
2018-06-17T20:10:53.425Z,19.20
2018-06-17T20:14:04.515Z,19.10
2018-06-17T20:17:16.436Z,19.10
2018-06-17T20:20:27.594Z,19.20
2018-06-17T20:23:40.632Z,19.00
2018-06-17T20:26:52.392Z,19.00
2018-06-17T20:30:03.783Z,18.90
2018-06-17T20:33:19.278Z,18.80
2018-06-17T20:36:36.114Z,18.80
2018-06-17T20:39:52.321Z,18.70
2018-06-17T20:43:07.460Z,18.70
2018-06-17T20:46:18.198Z,18.60
2018-06-17T20:49:29.050Z,18.50
2018-06-17T20:52:39.651Z,18.40
2018-06-17T20:55:50.400Z,18.30
2018-06-17T20:59:00.364Z,18.20
2018-06-17T21:02:10.279Z,18.00
2018-06-17T21:05:21.142Z,17.90
2018-06-17T21:08:32.041Z,17.80
2018-06-17T21:11:42.550Z,17.70
2018-06-17T21:14:53.360Z,17.50
2018-06-17T21:18:04.171Z,17.50
2018-06-17T21:21:20.552Z,17.40
2018-06-17T21:24:36.134Z,17.50
2018-06-17T21:27:50.257Z,17.40
2018-06-17T21:31:00.894Z,17.20
2018-06-17T21:34:11.892Z,17.20
2018-06-17T21:37:22.105Z,17.00
2018-06-17T21:40:32.511Z,17.00
2018-06-17T21:43:43.023Z,16.90
2018-06-17T21:46:52.858Z,16.80
2018-06-17T21:50:03.791Z,16.60
2018-06-17T21:53:14.392Z,16.60
2018-06-17T21:56:24.696Z,16.50
2018-06-17T21:59:34.675Z,16.40
2018-06-17T22:02:45.403Z,16.40
2018-06-17T22:05:55.956Z,16.30
2018-06-17T22:11:16.938Z,16.20
2018-06-17T22:14:32.179Z,16.30
2018-06-17T22:17:48.071Z,16.30
2018-06-17T22:20:58.964Z,16.10
2018-06-17T22:24:09.128Z,16.10
2018-06-17T22:27:19.075Z,16.00
2018-06-17T22:30:29.148Z,16.10
2018-06-17T22:33:40.283Z,16.10
2018-06-17T22:36:51.194Z,16.10
2018-06-17T22:40:01.941Z,16.10
2018-06-17T22:43:11.855Z,16.00
2018-06-17T22:46:22.612Z,16.00
2018-06-17T22:49:32.505Z,15.90
2018-06-17T22:52:54.494Z,15.90
2018-06-17T22:56:09.273Z,15.80
2018-06-17T22:59:25.543Z,15.70
2018-06-17T23:02:40.863Z,15.40
2018-06-17T23:05:57.043Z,15.50
2018-06-17T23:09:13.547Z,15.60
2018-06-17T23:12:23.999Z,15.50
2018-06-17T23:15:34.039Z,15.40
2018-06-17T23:18:44.801Z,15.30
2018-06-17T23:21:54.936Z,15.40
2018-06-17T23:25:05.694Z,15.40
2018-06-17T23:28:15.667Z,15.30
2018-06-17T23:31:25.849Z,15.30
2018-06-17T23:34:36.340Z,15.30
2018-06-17T23:37:46.613Z,15.40
2018-06-17T23:40:57.454Z,15.30
2018-06-17T23:44:08.269Z,15.20
2018-06-17T23:47:23.508Z,15.20
2018-06-17T23:50:39.301Z,15.30
2018-06-17T23:53:55.222Z,15.20
2018-06-17T23:57:05.977Z,15.10
